sensor_id;sensor_type;location;lat;lon;timestamp;pressure;altitude;pressure_sealevel;temperature;humidity
42247;BME280;27913;42.722;23.268;2023-04-09T08:24:25;95156.59;;;9.24;68.70
42247;BME280;27913;42.722;23.268;2023-04-09T08:26:50;95236.31;;;9.55;69.62
42247;BME280;27913;42.722;23.268;2023-04-09T08:29:16;95278.16;;;9.80;70.07
42247;BME280;27913;42.722;23.268;2023-04-09T08:31:41;95260.13;;;9.53;70.73
42247;BME280;27913;42.722;23.268;2023-04-09T08:34:07;95282.19;;;9.68;71.81
42247;BME280;27913;42.722;23.268;2023-04-09T08:36:33;95210.94;;;9.15;72.26
42247;BME280;27913;42.722;23.268;2023-04-09T08:38:59;95263.53;;;9.30;72.91
42247;BME280;27913;42.722;23.268;2023-04-09T08:41:26;95198.09;;;8.97;73.35
42247;BME280;27913;42.722;23.268;2023-04-09T08:43:56;95285.50;;;9.61;72.57
42247;BME280;27913;42.722;23.268;2023-04-09T08:46:22;95181.53;;;8.97;73.05
42247;BME280;27913;42.722;23.268;2023-04-09T08:48:48;95220.00;;;9.13;72.27
42247;BME280;27913;42.722;23.268;2023-04-09T08:51:23;95276.44;;;9.40;72.74
42247;BME280;27913;42.722;23.268;2023-04-09T08:53:56;95275.78;;;9.38;72.50
42247;BME280;27913;42.722;23.268;2023-04-09T08:56:22;95272.84;;;9.33;73.19
42247;BME280;27913;42.722;23.268;2023-04-09T08:58:48;95201.09;;;8.94;73.01
42247;BME280;27913;42.722;23.268;2023-04-09T09:01:32;95213.25;;;8.87;72.95
42247;BME280;27913;42.722;23.268;2023-04-09T09:04:05;95268.25;;;9.35;73.46
42247;BME280;27913;42.722;23.268;2023-04-09T09:06:36;95162.53;;;8.54;73.42
42247;BME280;27913;42.722;23.268;2023-04-09T09:11:28;95200.97;;;8.79;74.33
42247;BME280;27913;42.722;23.268;2023-04-09T09:14:08;95272.91;;;9.25;74.84
42247;BME280;27913;42.722;23.268;2023-04-09T09:16:35;95277.47;;;9.31;73.80
42247;BME280;27913;42.722;23.268;2023-04-09T09:19:04;95209.50;;;9.13;75.00
42247;BME280;27913;42.722;23.268;2023-04-09T09:21:31;95114.06;;;8.50;74.34
42247;BME280;27913;42.722;23.268;2023-04-09T09:23:57;95262.63;;;9.47;73.85
42247;BME280;27913;42.722;23.268;2023-04-09T09:26:25;95259.91;;;9.32;73.74
42247;BME280;27913;42.722;23.268;2023-04-09T09:28:51;95264.78;;;9.43;73.67
42247;BME280;27913;42.722;23.268;2023-04-09T09:31:19;95228.28;;;9.25;73.98
42247;BME280;27913;42.722;23.268;2023-04-09T09:33:45;95256.28;;;9.64;74.09
42247;BME280;27913;42.722;23.268;2023-04-09T09:36:11;95276.88;;;9.76;73.44
42247;BME280;27913;42.722;23.268;2023-04-09T09:38:51;95087.84;;;8.58;72.73
42247;BME280;27913;42.722;23.268;2023-04-09T09:41:18;95253.78;;;9.71;72.37
42247;BME280;27913;42.722;23.268;2023-04-09T09:43:44;95082.19;;;8.70;72.82
42247;BME280;27913;42.722;23.268;2023-04-09T09:46:10;95247.34;;;9.74;72.91
42247;BME280;27913;42.722;23.268;2023-04-09T09:48:36;95114.22;;;8.89;72.58
42247;BME280;27913;42.722;23.268;2023-04-09T09:51:07;95188.38;;;9.38;73.09
42247;BME280;27913;42.722;23.268;2023-04-09T09:53:33;95242.72;;;9.76;72.71
42247;BME280;27913;42.722;23.268;2023-04-09T09:56:01;95226.81;;;9.54;73.00
42247;BME280;27913;42.722;23.268;2023-04-09T10:01:06;95144.84;;;9.20;72.07
42247;BME280;27913;42.722;23.268;2023-04-09T10:03:37;95176.97;;;9.46;71.31
42247;BME280;27913;42.722;23.268;2023-04-09T10:06:04;95247.88;;;9.93;70.96
42247;BME280;27913;42.722;23.268;2023-04-09T10:08:30;95232.72;;;9.95;70.01
42247;BME280;27913;42.722;23.268;2023-04-09T10:11:01;95236.00;;;9.97;71.11
42247;BME280;27913;42.722;23.268;2023-04-09T10:13:34;95089.97;;;9.10;69.54
42247;BME280;27913;42.722;23.268;2023-04-09T10:16:01;95139.75;;;9.42;69.45
42247;BME280;27913;42.722;23.268;2023-04-09T10:18:31;95211.66;;;10.03;67.68
42247;BME280;27913;42.722;23.268;2023-04-09T10:21:11;95166.59;;;9.91;67.47
42247;BME280;27913;42.722;23.268;2023-04-09T10:23:40;95223.28;;;10.39;67.10
42247;BME280;27913;42.722;23.268;2023-04-09T10:26:06;95157.19;;;9.97;66.31
42247;BME280;27913;42.722;23.268;2023-04-09T10:28:33;94996.88;;;9.06;65.48
42247;BME280;27913;42.722;23.268;2023-04-09T10:30:59;95155.94;;;10.08;65.59
42247;BME280;27913;42.722;23.268;2023-04-09T10:33:26;95228.13;;;10.66;64.57
42247;BME280;27913;42.722;23.268;2023-04-09T10:35:53;95030.44;;;9.49;65.33
42247;BME280;27913;42.722;23.268;2023-04-09T10:38:39;95219.06;;;10.83;64.82
42247;BME280;27913;42.722;23.268;2023-04-09T10:41:12;95138.25;;;10.32;64.23
42247;BME280;27913;42.722;23.268;2023-04-09T10:43:38;95119.13;;;10.23;64.49
42247;BME280;27913;42.722;23.268;2023-04-09T10:46:06;95215.75;;;10.96;63.37
42247;BME280;27913;42.722;23.268;2023-04-09T10:48:33;95085.94;;;10.37;63.09
42247;BME280;27913;42.722;23.268;2023-04-09T10:51:01;95119.22;;;10.60;62.08
42247;BME280;27913;42.722;23.268;2023-04-09T10:53:31;95155.34;;;11.03;61.44
42247;BME280;27913;42.722;23.268;2023-04-09T10:55:56;95190.38;;;11.47;62.38
42247;BME280;27913;42.722;23.268;2023-04-09T10:58:22;95165.38;;;11.37;60.24
42247;BME280;27913;42.722;23.268;2023-04-09T11:00:48;95131.59;;;11.18;60.00
42247;BME280;27913;42.722;23.268;2023-04-09T11:03:23;95022.09;;;10.58;60.06
42247;BME280;27913;42.722;23.268;2023-04-09T11:06:01;95122.38;;;11.29;61.19
42247;BME280;27913;42.722;23.268;2023-04-09T11:08:29;95020.03;;;10.75;61.26
42247;BME280;27913;42.722;23.268;2023-04-09T11:10:55;95120.94;;;11.27;60.51
42247;BME280;27913;42.722;23.268;2023-04-09T11:13:23;95051.94;;;10.87;60.25
42247;BME280;27913;42.722;23.268;2023-04-09T11:15:49;95170.06;;;11.63;60.61
42247;BME280;27913;42.722;23.268;2023-04-09T11:18:19;95085.00;;;10.97;60.66
42247;BME280;27913;42.722;23.268;2023-04-09T11:20:45;95173.47;;;11.57;60.68
42247;BME280;27913;42.722;23.268;2023-04-09T11:23:12;95141.56;;;11.45;59.69
42247;BME280;27913;42.722;23.268;2023-04-09T11:25:37;95175.72;;;11.60;58.95
42247;BME280;27913;42.722;23.268;2023-04-09T11:28:04;95127.47;;;11.31;58.35
42247;BME280;27913;42.722;23.268;2023-04-09T11:30:31;95171.22;;;11.54;59.99
42247;BME280;27913;42.722;23.268;2023-04-09T11:32:58;95177.47;;;11.53;59.54
42247;BME280;27913;42.722;23.268;2023-04-09T11:35:24;94895.72;;;9.64;58.65
42247;BME280;27913;42.722;23.268;2023-04-09T11:37:49;95038.00;;;10.50;58.21
42247;BME280;27913;42.722;23.268;2023-04-09T11:42:43;95177.34;;;11.17;57.07
42247;BME280;27913;42.722;23.268;2023-04-09T11:45:10;95170.75;;;11.06;56.47
42247;BME280;27913;42.722;23.268;2023-04-09T11:47:38;95155.81;;;10.92;58.48
42247;BME280;27913;42.722;23.268;2023-04-09T11:50:06;94990.59;;;9.76;59.30
42247;BME280;27913;42.722;23.268;2023-04-09T11:52:32;95170.69;;;10.99;59.66
42247;BME280;27913;42.722;23.268;2023-04-09T11:55:03;95074.25;;;10.39;59.33
42247;BME280;27913;42.722;23.268;2023-04-09T11:57:44;95164.91;;;11.11;59.25
42247;BME280;27913;42.722;23.268;2023-04-09T12:00:11;95095.53;;;10.75;59.89
42247;BME280;27913;42.722;23.268;2023-04-09T12:02:43;95071.34;;;10.65;61.01
42247;BME280;27913;42.722;23.268;2023-04-09T12:05:11;95161.03;;;11.29;60.69
42247;BME280;27913;42.722;23.268;2023-04-09T12:09:49;94919.50;;;9.93;61.35
42247;BME280;27913;42.722;23.268;2023-04-09T12:12:22;94942.34;;;10.14;62.54
42247;BME280;27913;42.722;23.268;2023-04-09T12:14:48;95148.31;;;11.32;62.99
42247;BME280;27913;42.722;23.268;2023-04-09T12:17:19;95092.22;;;10.88;63.07
42247;BME280;27913;42.722;23.268;2023-04-09T12:19:47;95138.19;;;11.29;62.79
42247;BME280;27913;42.722;23.268;2023-04-09T12:22:13;95057.75;;;10.83;62.96
42247;BME280;27913;42.722;23.268;2023-04-09T12:24:41;95137.78;;;11.32;63.78
42247;BME280;27913;42.722;23.268;2023-04-09T12:27:06;94965.78;;;10.31;64.65
42247;BME280;27913;42.722;23.268;2023-04-09T12:29:32;94897.84;;;9.90;65.41
42247;BME280;27913;42.722;23.268;2023-04-09T12:31:57;95135.47;;;11.44;67.49
42247;BME280;27913;42.722;23.268;2023-04-09T12:34:23;95130.88;;;11.53;66.31
42247;BME280;27913;42.722;23.268;2023-04-09T12:36:48;95139.53;;;11.69;66.04
42247;BME280;27913;42.722;23.268;2023-04-09T12:39:14;94906.06;;;10.46;64.20
42247;BME280;27913;42.722;23.268;2023-04-09T12:41:39;95073.00;;;11.60;63.97
42247;BME280;27913;42.722;23.268;2023-04-09T12:44:05;95131.66;;;12.04;62.79
42247;BME280;27913;42.722;23.268;2023-04-09T12:46:31;95129.19;;;11.96;61.52
42247;BME280;27913;42.722;23.268;2023-04-09T12:48:57;95121.66;;;11.93;61.29
42247;BME280;27913;42.722;23.268;2023-04-09T12:51:22;95120.19;;;11.83;59.89
42247;BME280;27913;42.722;23.268;2023-04-09T12:53:48;95061.53;;;11.46;59.43
42247;BME280;27913;42.722;23.268;2023-04-09T12:56:13;95117.66;;;12.04;59.52
42247;BME280;27913;42.722;23.268;2023-04-09T12:58:39;95115.22;;;12.02;58.94
42247;BME280;27913;42.722;23.268;2023-04-09T13:01:04;94968.59;;;11.17;58.70
42247;BME280;27913;42.722;23.268;2023-04-09T13:03:30;95113.56;;;11.94;58.66
42247;BME280;27913;42.722;23.268;2023-04-09T13:05:55;95070.59;;;11.65;59.18
42247;BME280;27913;42.722;23.268;2023-04-09T13:08:21;95084.16;;;11.62;56.68
42247;BME280;27913;42.722;23.268;2023-04-09T13:10:47;95058.91;;;11.46;56.29
42247;BME280;27913;42.722;23.268;2023-04-09T13:13:12;95054.81;;;11.37;55.96
42247;BME280;27913;42.722;23.268;2023-04-09T13:15:39;95060.88;;;11.37;58.69
42247;BME280;27913;42.722;23.268;2023-04-09T13:18:07;95124.50;;;11.63;58.78
42247;BME280;27913;42.722;23.268;2023-04-09T13:20:32;95051.56;;;11.13;59.12
42247;BME280;27913;42.722;23.268;2023-04-09T13:22:58;95110.84;;;11.52;59.11
42247;BME280;27913;42.722;23.268;2023-04-09T13:25:23;95105.03;;;11.35;59.93
42247;BME280;27913;42.722;23.268;2023-04-09T13:27:49;95054.25;;;10.97;58.65
42247;BME280;27913;42.722;23.268;2023-04-09T13:30:14;95136.78;;;11.11;58.55
42247;BME280;27913;42.722;23.268;2023-04-09T13:32:40;95037.81;;;10.51;60.00
42247;BME280;27913;42.722;23.268;2023-04-09T13:35:06;95127.75;;;10.99;65.44
42247;BME280;27913;42.722;23.268;2023-04-09T13:37:32;94847.53;;;9.20;66.70
42247;BME280;27913;42.722;23.268;2023-04-09T13:39:57;95034.56;;;10.34;67.89
42247;BME280;27913;42.722;23.268;2023-04-09T13:42:23;95002.69;;;10.07;69.07
42247;BME280;27913;42.722;23.268;2023-04-09T13:44:48;94948.41;;;9.62;71.21
42247;BME280;27913;42.722;23.268;2023-04-09T13:47:15;95117.97;;;10.56;71.86
42247;BME280;27913;42.722;23.268;2023-04-09T13:49:42;94968.81;;;9.45;73.78
42247;BME280;27913;42.722;23.268;2023-04-09T13:52:09;95114.94;;;10.44;75.81
42247;BME280;27913;42.722;23.268;2023-04-09T13:54:35;95119.78;;;10.40;76.10
42247;BME280;27913;42.722;23.268;2023-04-09T13:57:02;95077.19;;;9.99;79.73
42247;BME280;27913;42.722;23.268;2023-04-09T13:59:28;95121.50;;;10.18;81.70
42247;BME280;27913;42.722;23.268;2023-04-09T14:01:53;94940.03;;;8.98;82.98
42247;BME280;27913;42.722;23.268;2023-04-09T14:04:19;95000.81;;;9.25;86.61
42247;BME280;27913;42.722;23.268;2023-04-09T14:06:45;95046.53;;;9.31;87.68
42247;BME280;27913;42.722;23.268;2023-04-09T14:09:10;95004.53;;;8.92;90.17
42247;BME280;27913;42.722;23.268;2023-04-09T14:11:36;94993.59;;;8.65;90.71
42247;BME280;27913;42.722;23.268;2023-04-09T14:14:02;95120.13;;;9.14;91.36
42247;BME280;27913;42.722;23.268;2023-04-09T14:16:28;95028.25;;;8.44;93.79
42247;BME280;27913;42.722;23.268;2023-04-09T14:18:55;95027.06;;;8.55;98.86
42247;BME280;27913;42.722;23.268;2023-04-09T14:21:21;95110.66;;;9.05;97.28
42247;BME280;27913;42.722;23.268;2023-04-09T14:23:46;95038.63;;;8.69;96.36
42247;BME280;27913;42.722;23.268;2023-04-09T14:26:12;95096.78;;;9.20;94.89
42247;BME280;27913;42.722;23.268;2023-04-09T14:28:38;95033.59;;;8.82;96.44
42247;BME280;27913;42.722;23.268;2023-04-09T14:31:04;95095.09;;;9.27;96.14
42247;BME280;27913;42.722;23.268;2023-04-09T14:33:29;95087.59;;;9.24;93.41
42247;BME280;27913;42.722;23.268;2023-04-09T14:35:55;95030.47;;;8.87;91.71
42247;BME280;27913;42.722;23.268;2023-04-09T14:38:21;95058.34;;;9.12;93.20
42247;BME280;27913;42.722;23.268;2023-04-09T14:40:50;95067.56;;;9.23;93.62
42247;BME280;27913;42.722;23.268;2023-04-09T14:43:16;95002.88;;;8.91;94.18
42247;BME280;27913;42.722;23.268;2023-04-09T14:45:42;94934.66;;;8.53;92.73
42247;BME280;27913;42.722;23.268;2023-04-09T14:48:07;95052.72;;;9.15;90.66
42247;BME280;27913;42.722;23.268;2023-04-09T14:50:33;94977.28;;;8.78;90.62
42247;BME280;27913;42.722;23.268;2023-04-09T14:52:59;94929.38;;;8.38;91.06
42247;BME280;27913;42.722;23.268;2023-04-09T14:55:26;95112.72;;;9.57;88.69
42247;BME280;27913;42.722;23.268;2023-04-09T14:57:52;94823.09;;;7.73;89.29
42247;BME280;27913;42.722;23.268;2023-04-09T15:00:17;95094.16;;;9.58;90.05
42247;BME280;27913;42.722;23.268;2023-04-09T15:02:43;95092.56;;;9.57;89.99
42247;BME280;27913;42.722;23.268;2023-04-09T15:05:09;95095.09;;;9.65;90.04
42247;BME280;27913;42.722;23.268;2023-04-09T15:07:35;95114.31;;;9.66;90.60
42247;BME280;27913;42.722;23.268;2023-04-09T15:10:01;95112.59;;;9.73;88.77
42247;BME280;27913;42.722;23.268;2023-04-09T15:12:30;95106.75;;;9.63;88.20
42247;BME280;27913;42.722;23.268;2023-04-09T15:14:55;95090.91;;;9.56;87.59
42247;BME280;27913;42.722;23.268;2023-04-09T15:17:22;94852.28;;;8.08;88.91
42247;BME280;27913;42.722;23.268;2023-04-09T15:19:58;94923.19;;;8.54;88.32
42247;BME280;27913;42.722;23.268;2023-04-09T15:22:23;94888.13;;;8.31;88.92
42247;BME280;27913;42.722;23.268;2023-04-09T15:24:50;94892.91;;;8.28;85.92
42247;BME280;27913;42.722;23.268;2023-04-09T15:27:16;94904.47;;;8.18;87.56
42247;BME280;27913;42.722;23.268;2023-04-09T15:29:42;94993.22;;;8.92;88.66
42247;BME280;27913;42.722;23.268;2023-04-09T15:32:07;94782.88;;;7.66;88.72
42247;BME280;27913;42.722;23.268;2023-04-09T15:34:33;95087.66;;;9.54;88.30
42247;BME280;27913;42.722;23.268;2023-04-09T15:36:59;94928.38;;;8.39;88.50
42247;BME280;27913;42.722;23.268;2023-04-09T15:39:24;94929.50;;;8.44;87.09
42247;BME280;27913;42.722;23.268;2023-04-09T15:41:53;95091.38;;;9.60;87.67
42247;BME280;27913;42.722;23.268;2023-04-09T15:44:19;95092.47;;;9.50;88.45
42247;BME280;27913;42.722;23.268;2023-04-09T15:46:44;94986.28;;;8.76;90.48
42247;BME280;27913;42.722;23.268;2023-04-09T15:49:10;95079.34;;;9.27;92.53
42247;BME280;27913;42.722;23.268;2023-04-09T15:51:38;94786.16;;;7.36;93.04
42247;BME280;27913;42.722;23.268;2023-04-09T15:54:04;95075.50;;;9.14;94.38
42247;BME280;27913;42.722;23.268;2023-04-09T15:56:29;95085.59;;;9.02;96.08
42247;BME280;27913;42.722;23.268;2023-04-09T15:58:55;94985.38;;;8.37;97.29
42247;BME280;27913;42.722;23.268;2023-04-09T16:01:21;95072.56;;;8.94;95.48
42247;BME280;27913;42.722;23.268;2023-04-09T16:03:46;94801.44;;;7.16;93.40
42247;BME280;27913;42.722;23.268;2023-04-09T16:06:16;95069.16;;;8.85;92.05
42247;BME280;27913;42.722;23.268;2023-04-09T16:08:42;94789.56;;;7.05;92.07
42247;BME280;27913;42.722;23.268;2023-04-09T16:11:07;95006.13;;;8.46;92.20
42247;BME280;27913;42.722;23.268;2023-04-09T16:13:33;94833.56;;;7.41;90.29
42247;BME280;27913;42.722;23.268;2023-04-09T16:15:59;94940.72;;;8.06;90.95
42247;BME280;27913;42.722;23.268;2023-04-09T16:18:26;95073.34;;;8.94;91.25
42247;BME280;27913;42.722;23.268;2023-04-09T16:20:52;94898.28;;;7.79;90.21
42247;BME280;27913;42.722;23.268;2023-04-09T16:23:20;95082.81;;;9.04;90.29
42247;BME280;27913;42.722;23.268;2023-04-09T16:25:46;95082.81;;;9.04;89.32
42247;BME280;27913;42.722;23.268;2023-04-09T16:28:11;95072.97;;;9.06;88.51
42247;BME280;27913;42.722;23.268;2023-04-09T16:30:39;95079.53;;;9.02;87.57
42247;BME280;27913;42.722;23.268;2023-04-09T16:33:05;94962.44;;;8.39;86.84
42247;BME280;27913;42.722;23.268;2023-04-09T16:35:32;95086.44;;;9.03;87.33
42247;BME280;27913;42.722;23.268;2023-04-09T16:37:58;95084.13;;;9.00;87.62
42247;BME280;27913;42.722;23.268;2023-04-09T16:40:23;95041.38;;;8.76;87.80
42247;BME280;27913;42.722;23.268;2023-04-09T16:42:49;95089.00;;;9.11;87.50
42247;BME280;27913;42.722;23.268;2023-04-09T16:45:14;94897.09;;;7.90;86.62
42247;BME280;27913;42.722;23.268;2023-04-09T16:47:40;94931.31;;;8.20;86.78
42247;BME280;27913;42.722;23.268;2023-04-09T16:50:06;94985.28;;;8.53;87.38
42247;BME280;27913;42.722;23.268;2023-04-09T16:52:36;95085.25;;;9.05;86.71
42247;BME280;27913;42.722;23.268;2023-04-09T16:55:01;95090.13;;;9.09;87.20
42247;BME280;27913;42.722;23.268;2023-04-09T16:57:27;95006.59;;;8.58;87.28
42247;BME280;27913;42.722;23.268;2023-04-09T16:59:53;95080.81;;;9.06;86.37
42247;BME280;27913;42.722;23.268;2023-04-09T17:02:18;95102.78;;;9.05;86.92
42247;BME280;27913;42.722;23.268;2023-04-09T17:04:47;95088.88;;;9.04;86.89
42247;BME280;27913;42.722;23.268;2023-04-09T17:07:14;94939.59;;;8.01;87.16
42247;BME280;27913;42.722;23.268;2023-04-09T17:09:40;95099.53;;;9.03;86.70
42247;BME280;27913;42.722;23.268;2023-04-09T17:12:06;94950.84;;;8.09;86.79
42247;BME280;27913;42.722;23.268;2023-04-09T17:14:31;94997.69;;;8.36;86.80
42247;BME280;27913;42.722;23.268;2023-04-09T17:16:58;94967.66;;;8.15;87.07
42247;BME280;27913;42.722;23.268;2023-04-09T17:19:24;94951.88;;;8.00;86.60
42247;BME280;27913;42.722;23.268;2023-04-09T17:21:50;95117.53;;;8.82;86.86
42247;BME280;27913;42.722;23.268;2023-04-09T17:24:15;95105.88;;;8.85;86.44
42247;BME280;27913;42.722;23.268;2023-04-09T17:26:41;95028.00;;;8.30;85.84
42247;BME280;27913;42.722;23.268;2023-04-09T17:29:08;95111.13;;;8.85;86.90
42247;BME280;27913;42.722;23.268;2023-04-09T17:31:33;94879.31;;;7.45;86.56
42247;BME280;27913;42.722;23.268;2023-04-09T17:33:59;95080.28;;;8.64;87.19
42247;BME280;27913;42.722;23.268;2023-04-09T17:36:24;95089.44;;;8.68;87.23
42247;BME280;27913;42.722;23.268;2023-04-09T17:38:50;94924.53;;;7.63;87.45
42247;BME280;27913;42.722;23.268;2023-04-09T17:41:20;95007.91;;;8.22;87.53
42247;BME280;27913;42.722;23.268;2023-04-09T17:43:47;94841.69;;;7.15;88.25
42247;BME280;27913;42.722;23.268;2023-04-09T17:46:13;94941.03;;;7.71;90.06
42247;BME280;27913;42.722;23.268;2023-04-09T17:48:38;94923.56;;;7.64;91.23
42247;BME280;27913;42.722;23.268;2023-04-09T17:51:05;95129.13;;;8.88;91.07
42247;BME280;27913;42.722;23.268;2023-04-09T17:53:31;95130.25;;;8.94;90.52
42247;BME280;27913;42.722;23.268;2023-04-09T17:55:56;95138.59;;;8.98;90.13
42247;BME280;27913;42.722;23.268;2023-04-09T17:58:22;95132.00;;;9.02;89.53
42247;BME280;27913;42.722;23.268;2023-04-09T18:00:49;95082.72;;;8.65;89.14
42247;BME280;27913;42.722;23.268;2023-04-09T18:03:14;95138.44;;;8.91;88.00
42247;BME280;27913;42.722;23.268;2023-04-09T18:05:40;95138.03;;;8.79;89.41
42247;BME280;27913;42.722;23.268;2023-04-09T18:08:06;95095.44;;;8.37;88.96
42247;BME280;27913;42.722;23.268;2023-04-09T18:10:32;95162.69;;;8.69;87.69
42247;BME280;27913;42.722;23.268;2023-04-09T18:12:57;95151.06;;;8.64;87.81
42247;BME280;27913;42.722;23.268;2023-04-09T18:15:23;95031.31;;;7.84;88.03
42247;BME280;27913;42.722;23.268;2023-04-09T18:17:48;95152.03;;;8.63;88.06
42247;BME280;27913;42.722;23.268;2023-04-09T18:20:14;95156.19;;;8.57;87.90
42247;BME280;27913;42.722;23.268;2023-04-09T18:22:43;95063.66;;;8.00;87.49
42247;BME280;27913;42.722;23.268;2023-04-09T18:25:08;95159.25;;;8.52;86.34
42247;BME280;27913;42.722;23.268;2023-04-09T18:27:34;95060.63;;;7.79;86.54
42247;BME280;27913;42.722;23.268;2023-04-09T18:30:00;95156.03;;;8.42;86.48
42247;BME280;27913;42.722;23.268;2023-04-09T18:32:26;95151.28;;;8.37;86.43
42247;BME280;27913;42.722;23.268;2023-04-09T18:34:51;95054.59;;;7.70;86.81
42247;BME280;27913;42.722;23.268;2023-04-09T18:37:18;95158.84;;;8.32;86.69
42247;BME280;27913;42.722;23.268;2023-04-09T18:39:44;95074.53;;;7.71;86.75
42247;BME280;27913;42.722;23.268;2023-04-09T18:42:11;94935.38;;;6.86;87.23
42247;BME280;27913;42.722;23.268;2023-04-09T18:44:36;95159.16;;;8.37;86.86
42247;BME280;27913;42.722;23.268;2023-04-09T18:47:06;95060.31;;;7.74;86.82
42247;BME280;27913;42.722;23.268;2023-04-09T18:49:33;95156.72;;;8.36;87.29
42247;BME280;27913;42.722;23.268;2023-04-09T18:51:59;95160.78;;;8.38;87.25
42247;BME280;27913;42.722;23.268;2023-04-09T18:54:25;95162.56;;;8.46;87.13
42247;BME280;27913;42.722;23.268;2023-04-09T18:56:50;95157.16;;;8.48;86.82
42247;BME280;27913;42.722;23.268;2023-04-09T18:59:16;95160.00;;;8.38;86.23
42247;BME280;27913;42.722;23.268;2023-04-09T19:01:43;95174.22;;;8.35;87.00
42247;BME280;27913;42.722;23.268;2023-04-09T19:04:09;95165.72;;;8.33;87.63
42247;BME280;27913;42.722;23.268;2023-04-09T19:06:35;95163.75;;;8.35;87.51
42247;BME280;27913;42.722;23.268;2023-04-09T19:09:02;95162.78;;;8.36;87.22
42247;BME280;27913;42.722;23.268;2023-04-09T19:11:28;94877.75;;;6.46;86.73
42247;BME280;27913;42.722;23.268;2023-04-09T19:13:54;95168.34;;;8.33;87.05
42247;BME280;27913;42.722;23.268;2023-04-09T19:16:20;94894.22;;;6.63;86.48
42247;BME280;27913;42.722;23.268;2023-04-09T19:18:46;95170.16;;;8.32;86.64
42247;BME280;27913;42.722;23.268;2023-04-09T19:21:12;95159.00;;;8.39;86.85
42247;BME280;27913;42.722;23.268;2023-04-09T19:23:38;95176.03;;;8.43;86.52
42247;BME280;27913;42.722;23.268;2023-04-09T19:26:03;95157.38;;;8.38;86.60
42247;BME280;27913;42.722;23.268;2023-04-09T19:28:29;95157.72;;;8.26;87.52
42247;BME280;27913;42.722;23.268;2023-04-09T19:30:55;95164.47;;;8.20;88.57
42247;BME280;27913;42.722;23.268;2023-04-09T19:33:24;94986.81;;;7.19;87.79
42247;BME280;27913;42.722;23.268;2023-04-09T19:35:50;95175.72;;;8.29;87.29
42247;BME280;27913;42.722;23.268;2023-04-09T19:38:17;95093.50;;;7.90;86.98
42247;BME280;27913;42.722;23.268;2023-04-09T19:40:43;95146.88;;;8.29;86.96
42247;BME280;27913;42.722;23.268;2023-04-09T19:43:09;95087.59;;;7.88;85.93
42247;BME280;27913;42.722;23.268;2023-04-09T19:45:39;95156.97;;;8.49;86.09
42247;BME280;27913;42.722;23.268;2023-04-09T19:48:05;95067.66;;;7.87;86.02
42247;BME280;27913;42.722;23.268;2023-04-09T19:50:35;95177.78;;;8.51;85.52
42247;BME280;27913;42.722;23.268;2023-04-09T19:53:02;94885.25;;;6.74;85.65
42247;BME280;27913;42.722;23.268;2023-04-09T19:55:29;95155.84;;;8.52;85.76
42247;BME280;27913;42.722;23.268;2023-04-09T19:57:54;94925.38;;;6.98;85.83
42247;BME280;27913;42.722;23.268;2023-04-09T20:00:20;95157.81;;;8.50;85.99
42247;BME280;27913;42.722;23.268;2023-04-09T20:02:46;95165.84;;;8.56;85.97
42247;BME280;27913;42.722;23.268;2023-04-09T20:05:12;95161.25;;;8.50;86.46
42247;BME280;27913;42.722;23.268;2023-04-09T20:07:38;94910.34;;;7.00;86.30
42247;BME280;27913;42.722;23.268;2023-04-09T20:10:04;95158.63;;;8.50;86.84
42247;BME280;27913;42.722;23.268;2023-04-09T20:12:30;95165.66;;;8.50;86.79
42247;BME280;27913;42.722;23.268;2023-04-09T20:14:56;95076.13;;;7.97;86.55
42247;BME280;27913;42.722;23.268;2023-04-09T20:17:22;94879.53;;;6.70;86.62
42247;BME280;27913;42.722;23.268;2023-04-09T20:19:47;95146.69;;;8.48;86.63
42247;BME280;27913;42.722;23.268;2023-04-09T20:22:14;95138.19;;;8.37;86.64
42247;BME280;27913;42.722;23.268;2023-04-09T20:24:42;95043.59;;;7.83;86.75
42247;BME280;27913;42.722;23.268;2023-04-09T20:27:08;95149.81;;;8.43;87.03
42247;BME280;27913;42.722;23.268;2023-04-09T20:29:34;95139.69;;;8.40;87.22
42247;BME280;27913;42.722;23.268;2023-04-09T20:31:59;95012.75;;;7.54;86.96
42247;BME280;27913;42.722;23.268;2023-04-09T20:34:25;95148.19;;;8.33;87.14
42247;BME280;27913;42.722;23.268;2023-04-09T20:36:55;95149.06;;;8.26;87.51
42247;BME280;27913;42.722;23.268;2023-04-09T20:39:21;95140.69;;;8.30;87.17
42247;BME280;27913;42.722;23.268;2023-04-09T20:41:49;95138.06;;;8.30;87.37
42247;BME280;27913;42.722;23.268;2023-04-09T20:44:14;95152.13;;;8.29;87.42
42247;BME280;27913;42.722;23.268;2023-04-09T20:46:40;95145.91;;;8.30;87.47
42247;BME280;27913;42.722;23.268;2023-04-09T20:49:06;95026.34;;;7.49;87.43
42247;BME280;27913;42.722;23.268;2023-04-09T20:51:31;95159.84;;;8.31;87.90
42247;BME280;27913;42.722;23.268;2023-04-09T20:53:57;95151.81;;;8.32;87.83
42247;BME280;27913;42.722;23.268;2023-04-09T20:56:26;94889.50;;;6.58;87.66
42247;BME280;27913;42.722;23.268;2023-04-09T20:58:51;95158.19;;;8.30;87.96
42247;BME280;27913;42.722;23.268;2023-04-09T21:01:17;95044.63;;;7.66;87.68
42247;BME280;27913;42.722;23.268;2023-04-09T21:03:43;95140.72;;;8.22;87.91
42247;BME280;27913;42.722;23.268;2023-04-09T21:06:09;95154.13;;;8.19;88.07
42247;BME280;27913;42.722;23.268;2023-04-09T21:08:34;95042.03;;;7.49;87.93
42247;BME280;27913;42.722;23.268;2023-04-09T21:11:01;95131.59;;;8.01;88.08
42247;BME280;27913;42.722;23.268;2023-04-09T21:13:27;95025.34;;;7.42;88.07
42247;BME280;27913;42.722;23.268;2023-04-09T21:15:52;95143.69;;;8.10;87.80
42247;BME280;27913;42.722;23.268;2023-04-09T21:18:18;95135.03;;;8.02;88.33
42247;BME280;27913;42.722;23.268;2023-04-09T21:20:47;95136.03;;;7.92;88.48
42247;BME280;27913;42.722;23.268;2023-04-09T21:23:14;95045.19;;;7.19;88.78
42247;BME280;27913;42.722;23.268;2023-04-09T21:25:39;94953.88;;;6.68;88.74
42247;BME280;27913;42.722;23.268;2023-04-09T21:28:05;95160.91;;;7.88;88.97